sensor_id;sensor_type;location;lat;lon;timestamp;temperature;humidity
1453;DHT22;720;47.738;7.998;2024-01-30T00:01:38;4.60;92.10
1453;DHT22;720;47.738;7.998;2024-01-30T00:04:04;4.60;92.20
1453;DHT22;720;47.738;7.998;2024-01-30T00:06:29;4.60;92.10
1453;DHT22;720;47.738;7.998;2024-01-30T00:08:55;4.60;92.20
1453;DHT22;720;47.738;7.998;2024-01-30T00:11:21;4.60;92.30
1453;DHT22;720;47.738;7.998;2024-01-30T00:13:46;4.60;92.30
1453;DHT22;720;47.738;7.998;2024-01-30T00:16:22;4.60;92.30
1453;DHT22;720;47.738;7.998;2024-01-30T00:18:52;4.60;92.20
1453;DHT22;720;47.738;7.998;2024-01-30T00:21:19;4.60;92.20
1453;DHT22;720;47.738;7.998;2024-01-30T00:23:44;4.70;92.20
1453;DHT22;720;47.738;7.998;2024-01-30T00:26:10;4.70;92.10
1453;DHT22;720;47.738;7.998;2024-01-30T00:28:40;4.70;92.00
1453;DHT22;720;47.738;7.998;2024-01-30T00:31:05;4.70;92.00
1453;DHT22;720;47.738;7.998;2024-01-30T00:33:31;4.60;92.10
1453;DHT22;720;47.738;7.998;2024-01-30T00:35:57;4.60;92.10
1453;DHT22;720;47.738;7.998;2024-01-30T00:38:22;4.60;92.00
1453;DHT22;720;47.738;7.998;2024-01-30T00:40:48;4.60;92.20
1453;DHT22;720;47.738;7.998;2024-01-30T00:43:15;4.50;92.30
1453;DHT22;720;47.738;7.998;2024-01-30T00:45:41;4.50;92.40
1453;DHT22;720;47.738;7.998;2024-01-30T00:48:07;4.50;92.40
1453;DHT22;720;47.738;7.998;2024-01-30T00:50:32;4.50;92.30
1453;DHT22;720;47.738;7.998;2024-01-30T00:52:58;4.60;92.20
1453;DHT22;720;47.738;7.998;2024-01-30T00:55:24;4.60;92.20
1453;DHT22;720;47.738;7.998;2024-01-30T00:57:49;4.60;92.20
1453;DHT22;720;47.738;7.998;2024-01-30T01:00:15;4.60;92.00
1453;DHT22;720;47.738;7.998;2024-01-30T01:02:44;4.70;91.90
1453;DHT22;720;47.738;7.998;2024-01-30T01:05:10;4.70;91.80
1453;DHT22;720;47.738;7.998;2024-01-30T01:07:35;4.70;91.60
1453;DHT22;720;47.738;7.998;2024-01-30T01:10:01;4.60;91.60
1453;DHT22;720;47.738;7.998;2024-01-30T01:12:27;4.60;91.80
1453;DHT22;720;47.738;7.998;2024-01-30T01:14:53;4.60;91.80
1453;DHT22;720;47.738;7.998;2024-01-30T01:17:19;4.60;91.80
1453;DHT22;720;47.738;7.998;2024-01-30T01:19:44;4.60;91.70
1453;DHT22;720;47.738;7.998;2024-01-30T01:22:10;4.60;91.50
1453;DHT22;720;47.738;7.998;2024-01-30T01:24:36;4.70;91.50
1453;DHT22;720;47.738;7.998;2024-01-30T01:27:02;4.70;91.30
1453;DHT22;720;47.738;7.998;2024-01-30T01:29:28;4.70;91.20
1453;DHT22;720;47.738;7.998;2024-01-30T01:31:58;4.60;91.30
1453;DHT22;720;47.738;7.998;2024-01-30T01:34:24;4.60;91.30
1453;DHT22;720;47.738;7.998;2024-01-30T01:36:50;4.50;91.40
1453;DHT22;720;47.738;7.998;2024-01-30T01:39:16;4.60;91.30
1453;DHT22;720;47.738;7.998;2024-01-30T01:41:42;4.50;91.20
1453;DHT22;720;47.738;7.998;2024-01-30T01:44:08;4.50;91.30
1453;DHT22;720;47.738;7.998;2024-01-30T01:46:34;4.50;91.30
1453;DHT22;720;47.738;7.998;2024-01-30T01:49:02;4.50;91.50
1453;DHT22;720;47.738;7.998;2024-01-30T01:51:29;4.40;91.70
1453;DHT22;720;47.738;7.998;2024-01-30T01:53:57;4.40;91.70
1453;DHT22;720;47.738;7.998;2024-01-30T01:56:24;4.50;91.70
1453;DHT22;720;47.738;7.998;2024-01-30T01:58:51;4.50;91.60
1453;DHT22;720;47.738;7.998;2024-01-30T02:01:20;4.60;91.40
1453;DHT22;720;47.738;7.998;2024-01-30T02:03:46;4.60;91.30
1453;DHT22;720;47.738;7.998;2024-01-30T02:06:14;4.70;91.30
1453;DHT22;720;47.738;7.998;2024-01-30T02:08:40;4.60;91.10
1453;DHT22;720;47.738;7.998;2024-01-30T02:11:06;4.50;91.20
1453;DHT22;720;47.738;7.998;2024-01-30T02:13:31;4.60;91.10
1453;DHT22;720;47.738;7.998;2024-01-30T02:15:57;4.60;91.10
1453;DHT22;720;47.738;7.998;2024-01-30T02:18:23;4.70;91.00
1453;DHT22;720;47.738;7.998;2024-01-30T02:20:49;4.60;90.90
1453;DHT22;720;47.738;7.998;2024-01-30T02:23:16;4.60;91.00
1453;DHT22;720;47.738;7.998;2024-01-30T02:25:42;4.60;91.00
1453;DHT22;720;47.738;7.998;2024-01-30T02:28:14;4.60;90.90
1453;DHT22;720;47.738;7.998;2024-01-30T02:30:40;4.60;90.90
1453;DHT22;720;47.738;7.998;2024-01-30T02:33:06;4.50;90.80
1453;DHT22;720;47.738;7.998;2024-01-30T02:35:31;4.50;91.00
1453;DHT22;720;47.738;7.998;2024-01-30T02:37:58;4.50;91.10
1453;DHT22;720;47.738;7.998;2024-01-30T02:40:24;4.50;91.00
1453;DHT22;720;47.738;7.998;2024-01-30T02:42:50;4.50;90.90
1453;DHT22;720;47.738;7.998;2024-01-30T02:45:15;4.40;91.10
1453;DHT22;720;47.738;7.998;2024-01-30T02:47:41;4.40;91.30
1453;DHT22;720;47.738;7.998;2024-01-30T02:50:07;4.40;91.30
1453;DHT22;720;47.738;7.998;2024-01-30T02:52:34;4.40;91.20
1453;DHT22;720;47.738;7.998;2024-01-30T02:55:01;4.50;91.20
1453;DHT22;720;47.738;7.998;2024-01-30T02:57:27;4.50;91.00
1453;DHT22;720;47.738;7.998;2024-01-30T02:59:53;4.40;91.00
1453;DHT22;720;47.738;7.998;2024-01-30T03:02:19;4.40;91.00
1453;DHT22;720;47.738;7.998;2024-01-30T03:04:45;4.40;91.00
1453;DHT22;720;47.738;7.998;2024-01-30T03:07:11;4.50;90.90
1453;DHT22;720;47.738;7.998;2024-01-30T03:09:37;4.50;90.80
1453;DHT22;720;47.738;7.998;2024-01-30T03:12:03;4.40;90.80
1453;DHT22;720;47.738;7.998;2024-01-30T03:14:31;4.40;90.80
1453;DHT22;720;47.738;7.998;2024-01-30T03:16:57;4.50;90.80
1453;DHT22;720;47.738;7.998;2024-01-30T03:19:23;4.40;90.50
1453;DHT22;720;47.738;7.998;2024-01-30T03:21:48;4.40;90.60
1453;DHT22;720;47.738;7.998;2024-01-30T03:24:14;4.50;90.60
1453;DHT22;720;47.738;7.998;2024-01-30T03:26:40;4.50;90.70
1453;DHT22;720;47.738;7.998;2024-01-30T03:29:05;4.50;90.50
1453;DHT22;720;47.738;7.998;2024-01-30T03:31:31;4.60;90.60
1453;DHT22;720;47.738;7.998;2024-01-30T03:33:57;4.50;90.50
1453;DHT22;720;47.738;7.998;2024-01-30T03:36:23;4.40;90.70
1453;DHT22;720;47.738;7.998;2024-01-30T03:38:49;4.40;90.80
1453;DHT22;720;47.738;7.998;2024-01-30T03:41:14;4.40;90.90
1453;DHT22;720;47.738;7.998;2024-01-30T03:43:40;4.40;91.00
1453;DHT22;720;47.738;7.998;2024-01-30T03:46:06;4.40;91.10
1453;DHT22;720;47.738;7.998;2024-01-30T03:48:32;4.40;91.20
1453;DHT22;720;47.738;7.998;2024-01-30T03:50:58;4.40;91.30
1453;DHT22;720;47.738;7.998;2024-01-30T03:53:23;4.40;91.40
1453;DHT22;720;47.738;7.998;2024-01-30T03:55:49;4.40;91.40
1453;DHT22;720;47.738;7.998;2024-01-30T03:58:15;4.40;91.30
1453;DHT22;720;47.738;7.998;2024-01-30T04:00:40;4.30;91.40
1453;DHT22;720;47.738;7.998;2024-01-30T04:03:06;4.20;91.80
1453;DHT22;720;47.738;7.998;2024-01-30T04:05:32;4.30;92.00
1453;DHT22;720;47.738;7.998;2024-01-30T04:07:58;4.30;91.90
1453;DHT22;720;47.738;7.998;2024-01-30T04:10:24;4.30;91.90
1453;DHT22;720;47.738;7.998;2024-01-30T04:12:50;4.20;92.00
1453;DHT22;720;47.738;7.998;2024-01-30T04:15:17;4.20;92.10
1453;DHT22;720;47.738;7.998;2024-01-30T04:17:43;4.20;92.00
1453;DHT22;720;47.738;7.998;2024-01-30T04:20:15;4.20;92.00
1453;DHT22;720;47.738;7.998;2024-01-30T04:22:44;4.30;92.00
1453;DHT22;720;47.738;7.998;2024-01-30T04:25:10;4.40;92.00
1453;DHT22;720;47.738;7.998;2024-01-30T04:27:36;4.40;91.80
1453;DHT22;720;47.738;7.998;2024-01-30T04:30:02;4.40;91.70
1453;DHT22;720;47.738;7.998;2024-01-30T04:32:27;4.40;91.60
1453;DHT22;720;47.738;7.998;2024-01-30T04:34:53;4.30;91.50
1453;DHT22;720;47.738;7.998;2024-01-30T04:37:18;4.30;91.50
1453;DHT22;720;47.738;7.998;2024-01-30T04:39:44;4.20;91.70
1453;DHT22;720;47.738;7.998;2024-01-30T04:42:10;4.20;91.80
1453;DHT22;720;47.738;7.998;2024-01-30T04:44:35;4.20;92.10
1453;DHT22;720;47.738;7.998;2024-01-30T04:47:01;4.10;92.30
1453;DHT22;720;47.738;7.998;2024-01-30T04:49:27;4.20;92.60
1453;DHT22;720;47.738;7.998;2024-01-30T04:51:54;4.20;92.60
1453;DHT22;720;47.738;7.998;2024-01-30T04:54:21;4.30;92.50
1453;DHT22;720;47.738;7.998;2024-01-30T04:56:46;4.20;92.30
1453;DHT22;720;47.738;7.998;2024-01-30T04:59:12;4.20;92.30
1453;DHT22;720;47.738;7.998;2024-01-30T05:01:37;4.20;92.40
1453;DHT22;720;47.738;7.998;2024-01-30T05:04:03;4.30;92.40
1453;DHT22;720;47.738;7.998;2024-01-30T05:06:29;4.30;92.30
1453;DHT22;720;47.738;7.998;2024-01-30T05:08:55;4.30;92.30
1453;DHT22;720;47.738;7.998;2024-01-30T05:11:21;4.20;92.40
1453;DHT22;720;47.738;7.998;2024-01-30T05:13:46;4.20;92.40
1453;DHT22;720;47.738;7.998;2024-01-30T05:16:13;4.20;92.40
1453;DHT22;720;47.738;7.998;2024-01-30T05:18:38;4.30;92.30
1453;DHT22;720;47.738;7.998;2024-01-30T05:21:05;4.30;92.20
1453;DHT22;720;47.738;7.998;2024-01-30T05:23:30;4.30;92.10
1453;DHT22;720;47.738;7.998;2024-01-30T05:25:56;4.20;92.00
1453;DHT22;720;47.738;7.998;2024-01-30T05:28:22;4.20;92.10
1453;DHT22;720;47.738;7.998;2024-01-30T05:30:47;4.30;92.10
1453;DHT22;720;47.738;7.998;2024-01-30T05:33:13;4.40;92.00
1453;DHT22;720;47.738;7.998;2024-01-30T05:35:39;4.40;92.20
1453;DHT22;720;47.738;7.998;2024-01-30T05:38:04;4.40;92.40
1453;DHT22;720;47.738;7.998;2024-01-30T05:40:33;4.40;92.40
1453;DHT22;720;47.738;7.998;2024-01-30T05:42:58;4.40;92.40
1453;DHT22;720;47.738;7.998;2024-01-30T05:45:26;4.40;92.50
1453;DHT22;720;47.738;7.998;2024-01-30T05:47:52;4.40;92.40
1453;DHT22;720;47.738;7.998;2024-01-30T05:50:19;4.40;92.30
1453;DHT22;720;47.738;7.998;2024-01-30T05:52:44;4.50;92.20
1453;DHT22;720;47.738;7.998;2024-01-30T05:55:11;4.50;92.20
1453;DHT22;720;47.738;7.998;2024-01-30T05:57:37;4.50;92.10
1453;DHT22;720;47.738;7.998;2024-01-30T06:00:04;4.50;92.10
1453;DHT22;720;47.738;7.998;2024-01-30T06:02:30;4.60;92.20
1453;DHT22;720;47.738;7.998;2024-01-30T06:04:56;4.60;92.00
1453;DHT22;720;47.738;7.998;2024-01-30T06:07:22;4.70;91.90
1453;DHT22;720;47.738;7.998;2024-01-30T06:09:47;4.70;91.60
1453;DHT22;720;47.738;7.998;2024-01-30T06:12:13;4.70;91.50
1453;DHT22;720;47.738;7.998;2024-01-30T06:14:39;4.70;91.30
1453;DHT22;720;47.738;7.998;2024-01-30T06:17:05;4.60;91.40
1453;DHT22;720;47.738;7.998;2024-01-30T06:19:30;4.60;91.70
1453;DHT22;720;47.738;7.998;2024-01-30T06:21:56;4.60;91.70
1453;DHT22;720;47.738;7.998;2024-01-30T06:24:22;4.60;91.70
1453;DHT22;720;47.738;7.998;2024-01-30T06:26:47;4.70;91.60
1453;DHT22;720;47.738;7.998;2024-01-30T06:29:13;4.70;91.60
1453;DHT22;720;47.738;7.998;2024-01-30T06:31:40;4.70;91.60
1453;DHT22;720;47.738;7.998;2024-01-30T06:34:07;4.70;91.40
1453;DHT22;720;47.738;7.998;2024-01-30T06:36:33;4.60;91.30
1453;DHT22;720;47.738;7.998;2024-01-30T06:38:59;4.50;91.40
1453;DHT22;720;47.738;7.998;2024-01-30T06:41:24;4.60;91.70
1453;DHT22;720;47.738;7.998;2024-01-30T06:43:50;4.50;91.60
1453;DHT22;720;47.738;7.998;2024-01-30T06:46:16;4.50;91.60
1453;DHT22;720;47.738;7.998;2024-01-30T06:48:41;4.60;91.50
1453;DHT22;720;47.738;7.998;2024-01-30T06:51:10;4.60;91.40
1453;DHT22;720;47.738;7.998;2024-01-30T06:53:36;4.60;91.50
1453;DHT22;720;47.738;7.998;2024-01-30T06:56:02;4.50;91.50
1453;DHT22;720;47.738;7.998;2024-01-30T06:58:27;4.50;91.70
1453;DHT22;720;47.738;7.998;2024-01-30T07:00:53;4.50;91.80
1453;DHT22;720;47.738;7.998;2024-01-30T07:03:19;4.50;91.90
1453;DHT22;720;47.738;7.998;2024-01-30T07:05:45;4.70;92.10
1453;DHT22;720;47.738;7.998;2024-01-30T07:08:10;4.70;91.90
1453;DHT22;720;47.738;7.998;2024-01-30T07:10:37;4.70;91.80
1453;DHT22;720;47.738;7.998;2024-01-30T07:13:03;4.80;91.60
1453;DHT22;720;47.738;7.998;2024-01-30T07:15:30;4.90;91.60
1453;DHT22;720;47.738;7.998;2024-01-30T07:17:57;4.90;91.50
1453;DHT22;720;47.738;7.998;2024-01-30T07:20:23;4.90;91.50
1453;DHT22;720;47.738;7.998;2024-01-30T07:22:49;5.00;91.30
1453;DHT22;720;47.738;7.998;2024-01-30T07:25:14;5.10;91.10
1453;DHT22;720;47.738;7.998;2024-01-30T07:27:42;5.20;90.80
1453;DHT22;720;47.738;7.998;2024-01-30T07:30:08;5.20;90.70
1453;DHT22;720;47.738;7.998;2024-01-30T07:32:33;5.30;90.80
1453;DHT22;720;47.738;7.998;2024-01-30T07:34:59;5.30;90.50
1453;DHT22;720;47.738;7.998;2024-01-30T07:37:24;5.40;90.40
1453;DHT22;720;47.738;7.998;2024-01-30T07:39:50;5.40;90.30
1453;DHT22;720;47.738;7.998;2024-01-30T07:42:16;5.40;90.30
1453;DHT22;720;47.738;7.998;2024-01-30T07:44:42;5.50;90.10
1453;DHT22;720;47.738;7.998;2024-01-30T07:47:08;5.50;90.10
1453;DHT22;720;47.738;7.998;2024-01-30T07:49:34;5.50;90.20
1453;DHT22;720;47.738;7.998;2024-01-30T07:52:02;5.50;90.30
1453;DHT22;720;47.738;7.998;2024-01-30T07:54:27;5.60;90.20
1453;DHT22;720;47.738;7.998;2024-01-30T07:56:53;5.70;90.10
1453;DHT22;720;47.738;7.998;2024-01-30T07:59:19;5.80;90.00
1453;DHT22;720;47.738;7.998;2024-01-30T08:01:50;5.90;90.00
1453;DHT22;720;47.738;7.998;2024-01-30T08:04:15;6.10;89.50
1453;DHT22;720;47.738;7.998;2024-01-30T08:06:41;6.30;89.90
1453;DHT22;720;47.738;7.998;2024-01-30T08:09:08;6.60;89.80
1453;DHT22;720;47.738;7.998;2024-01-30T08:11:34;7.00;89.10
1453;DHT22;720;47.738;7.998;2024-01-30T08:13:59;7.60;86.60
1453;DHT22;720;47.738;7.998;2024-01-30T08:16:25;8.30;86.80
1453;DHT22;720;47.738;7.998;2024-01-30T08:18:51;9.00;85.30
1453;DHT22;720;47.738;7.998;2024-01-30T08:21:18;9.90;83.60
1453;DHT22;720;47.738;7.998;2024-01-30T08:23:44;11.10;79.10
1453;DHT22;720;47.738;7.998;2024-01-30T08:26:09;12.20;75.40
1453;DHT22;720;47.738;7.998;2024-01-30T08:28:35;13.10;72.20
1453;DHT22;720;47.738;7.998;2024-01-30T08:31:01;13.70;68.90
1453;DHT22;720;47.738;7.998;2024-01-30T08:33:26;14.40;66.30
1453;DHT22;720;47.738;7.998;2024-01-30T08:35:52;15.30;64.10
1453;DHT22;720;47.738;7.998;2024-01-30T08:38:19;16.30;60.80
1453;DHT22;720;47.738;7.998;2024-01-30T08:40:44;17.20;57.60
1453;DHT22;720;47.738;7.998;2024-01-30T08:43:10;17.90;55.20
1453;DHT22;720;47.738;7.998;2024-01-30T08:45:36;18.20;53.20
1453;DHT22;720;47.738;7.998;2024-01-30T08:48:02;18.00;51.50
1453;DHT22;720;47.738;7.998;2024-01-30T08:50:27;17.80;51.00
1453;DHT22;720;47.738;7.998;2024-01-30T08:52:53;17.60;50.80
1453;DHT22;720;47.738;7.998;2024-01-30T08:55:19;17.70;50.20
1453;DHT22;720;47.738;7.998;2024-01-30T08:57:45;17.70;49.60
1453;DHT22;720;47.738;7.998;2024-01-30T09:00:11;17.00;49.80
1453;DHT22;720;47.738;7.998;2024-01-30T09:02:37;16.20;49.80
1453;DHT22;720;47.738;7.998;2024-01-30T09:05:03;15.30;51.20
1453;DHT22;720;47.738;7.998;2024-01-30T09:07:28;14.50;52.00
1453;DHT22;720;47.738;7.998;2024-01-30T09:09:54;13.80;53.40
1453;DHT22;720;47.738;7.998;2024-01-30T09:12:20;13.10;54.70
1453;DHT22;720;47.738;7.998;2024-01-30T09:14:45;12.50;56.40
1453;DHT22;720;47.738;7.998;2024-01-30T09:17:11;12.20;58.00
1453;DHT22;720;47.738;7.998;2024-01-30T09:19:37;12.00;58.80
1453;DHT22;720;47.738;7.998;2024-01-30T09:22:03;11.70;59.50
1453;DHT22;720;47.738;7.998;2024-01-30T09:24:29;11.50;60.40
1453;DHT22;720;47.738;7.998;2024-01-30T09:26:54;11.40;60.70
1453;DHT22;720;47.738;7.998;2024-01-30T09:29:21;11.30;62.70
1453;DHT22;720;47.738;7.998;2024-01-30T09:31:47;11.10;64.20
1453;DHT22;720;47.738;7.998;2024-01-30T09:34:13;11.00;65.10
1453;DHT22;720;47.738;7.998;2024-01-30T09:36:39;11.10;65.60
1453;DHT22;720;47.738;7.998;2024-01-30T09:39:04;11.20;66.10
1453;DHT22;720;47.738;7.998;2024-01-30T09:41:32;11.20;65.50
1453;DHT22;720;47.738;7.998;2024-01-30T09:43:59;11.20;65.70
1453;DHT22;720;47.738;7.998;2024-01-30T09:46:27;11.10;66.60
1453;DHT22;720;47.738;7.998;2024-01-30T09:48:54;11.20;67.30
1453;DHT22;720;47.738;7.998;2024-01-30T09:51:21;10.90;67.80
1453;DHT22;720;47.738;7.998;2024-01-30T09:53:48;10.80;67.20
1453;DHT22;720;47.738;7.998;2024-01-30T09:56:14;10.90;68.00
1453;DHT22;720;47.738;7.998;2024-01-30T09:58:40;10.90;66.50
1453;DHT22;720;47.738;7.998;2024-01-30T10:01:07;11.10;61.70
1453;DHT22;720;47.738;7.998;2024-01-30T10:03:33;11.30;59.70
1453;DHT22;720;47.738;7.998;2024-01-30T10:05:59;11.50;58.20
1453;DHT22;720;47.738;7.998;2024-01-30T10:08:26;11.70;59.30
1453;DHT22;720;47.738;7.998;2024-01-30T10:10:52;11.80;60.90
1453;DHT22;720;47.738;7.998;2024-01-30T10:13:18;11.80;59.90
1453;DHT22;720;47.738;7.998;2024-01-30T10:15:44;12.00;56.60
1453;DHT22;720;47.738;7.998;2024-01-30T10:18:10;12.10;54.90
1453;DHT22;720;47.738;7.998;2024-01-30T10:20:36;12.30;55.20
1453;DHT22;720;47.738;7.998;2024-01-30T10:23:03;12.40;53.80
1453;DHT22;720;47.738;7.998;2024-01-30T10:25:30;12.50;54.70
1453;DHT22;720;47.738;7.998;2024-01-30T10:27:56;12.50;53.80
1453;DHT22;720;47.738;7.998;2024-01-30T10:30:23;12.50;52.40
1453;DHT22;720;47.738;7.998;2024-01-30T10:32:49;12.60;50.90
1453;DHT22;720;47.738;7.998;2024-01-30T10:35:15;12.70;50.60
1453;DHT22;720;47.738;7.998;2024-01-30T10:37:43;12.90;49.90
1453;DHT22;720;47.738;7.998;2024-01-30T10:40:12;13.20;50.90
1453;DHT22;720;47.738;7.998;2024-01-30T10:42:42;13.50;48.60
1453;DHT22;720;47.738;7.998;2024-01-30T10:45:11;13.60;48.30
1453;DHT22;720;47.738;7.998;2024-01-30T10:47:49;13.70;46.80
1453;DHT22;720;47.738;7.998;2024-01-30T10:50:15;13.50;46.10
1453;DHT22;720;47.738;7.998;2024-01-30T10:52:42;13.60;45.80
1453;DHT22;720;47.738;7.998;2024-01-30T10:55:08;13.80;44.10
1453;DHT22;720;47.738;7.998;2024-01-30T10:57:37;13.90;43.20
1453;DHT22;720;47.738;7.998;2024-01-30T11:00:11;14.00;43.00
1453;DHT22;720;47.738;7.998;2024-01-30T11:02:43;14.00;43.40
1453;DHT22;720;47.738;7.998;2024-01-30T11:05:09;13.90;43.60
1453;DHT22;720;47.738;7.998;2024-01-30T11:07:35;13.80;42.70
1453;DHT22;720;47.738;7.998;2024-01-30T11:10:04;13.70;44.70
1453;DHT22;720;47.738;7.998;2024-01-30T11:12:32;14.00;43.90
1453;DHT22;720;47.738;7.998;2024-01-30T11:15:08;14.20;43.20
1453;DHT22;720;47.738;7.998;2024-01-30T11:20:31;13.50;42.70
1453;DHT22;720;47.738;7.998;2024-01-30T11:22:57;13.50;42.90
1453;DHT22;720;47.738;7.998;2024-01-30T11:25:24;13.60;42.90
1453;DHT22;720;47.738;7.998;2024-01-30T11:27:54;13.60;43.10
1453;DHT22;720;47.738;7.998;2024-01-30T11:30:30;13.50;41.80
1453;DHT22;720;47.738;7.998;2024-01-30T11:33:02;13.30;43.20
1453;DHT22;720;47.738;7.998;2024-01-30T11:35:33;13.40;43.70
1453;DHT22;720;47.738;7.998;2024-01-30T11:38:00;13.30;43.00
1453;DHT22;720;47.738;7.998;2024-01-30T11:40:29;13.20;42.80
1453;DHT22;720;47.738;7.998;2024-01-30T11:42:56;13.30;43.10
1453;DHT22;720;47.738;7.998;2024-01-30T11:45:23;13.40;43.30
1453;DHT22;720;47.738;7.998;2024-01-30T11:47:49;13.50;42.00
1453;DHT22;720;47.738;7.998;2024-01-30T11:50:15;13.40;42.60
1453;DHT22;720;47.738;7.998;2024-01-30T11:52:40;13.50;42.90
1453;DHT22;720;47.738;7.998;2024-01-30T11:55:07;13.60;44.10
1453;DHT22;720;47.738;7.998;2024-01-30T11:57:33;13.70;43.60
1453;DHT22;720;47.738;7.998;2024-01-30T12:00:01;13.60;42.60
1453;DHT22;720;47.738;7.998;2024-01-30T12:02:26;13.50;43.00
1453;DHT22;720;47.738;7.998;2024-01-30T12:04:52;13.40;42.90
1453;DHT22;720;47.738;7.998;2024-01-30T12:07:18;13.20;43.50
1453;DHT22;720;47.738;7.998;2024-01-30T12:09:52;13.20;44.30
1453;DHT22;720;47.738;7.998;2024-01-30T12:12:20;13.40;44.50
1453;DHT22;720;47.738;7.998;2024-01-30T12:14:46;13.50;44.60
1453;DHT22;720;47.738;7.998;2024-01-30T12:17:25;13.60;44.80
1453;DHT22;720;47.738;7.998;2024-01-30T12:19:50;13.70;45.40
1453;DHT22;720;47.738;7.998;2024-01-30T12:22:16;13.50;46.50
1453;DHT22;720;47.738;7.998;2024-01-30T12:24:41;13.60;48.20
1453;DHT22;720;47.738;7.998;2024-01-30T12:27:07;13.50;46.60
1453;DHT22;720;47.738;7.998;2024-01-30T12:29:33;13.50;47.30
1453;DHT22;720;47.738;7.998;2024-01-30T12:32:00;13.30;47.60
1453;DHT22;720;47.738;7.998;2024-01-30T12:34:25;13.10;46.90
1453;DHT22;720;47.738;7.998;2024-01-30T12:36:51;12.80;48.00
1453;DHT22;720;47.738;7.998;2024-01-30T12:39:17;12.70;48.50
1453;DHT22;720;47.738;7.998;2024-01-30T12:41:43;12.50;48.90
1453;DHT22;720;47.738;7.998;2024-01-30T12:44:09;12.50;50.10
1453;DHT22;720;47.738;7.998;2024-01-30T12:46:35;12.50;50.20
1453;DHT22;720;47.738;7.998;2024-01-30T12:49:00;12.60;50.20
1453;DHT22;720;47.738;7.998;2024-01-30T12:51:26;12.60;50.50
1453;DHT22;720;47.738;7.998;2024-01-30T12:53:52;12.50;51.10
1453;DHT22;720;47.738;7.998;2024-01-30T12:56:18;12.50;50.30
1453;DHT22;720;47.738;7.998;2024-01-30T12:58:43;12.50;50.50
1453;DHT22;720;47.738;7.998;2024-01-30T13:01:09;12.60;50.50
1453;DHT22;720;47.738;7.998;2024-01-30T13:03:35;12.60;50.40
1453;DHT22;720;47.738;7.998;2024-01-30T13:06:01;12.50;50.30
1453;DHT22;720;47.738;7.998;2024-01-30T13:08:26;12.40;50.80
1453;DHT22;720;47.738;7.998;2024-01-30T13:10:52;12.30;50.80
1453;DHT22;720;47.738;7.998;2024-01-30T13:13:18;12.30;51.90
1453;DHT22;720;47.738;7.998;2024-01-30T13:15:44;12.30;51.00
1453;DHT22;720;47.738;7.998;2024-01-30T13:18:10;12.30;50.80
1453;DHT22;720;47.738;7.998;2024-01-30T13:20:35;12.30;50.80
1453;DHT22;720;47.738;7.998;2024-01-30T13:23:01;12.20;53.10
1453;DHT22;720;47.738;7.998;2024-01-30T13:25:27;12.10;52.80
1453;DHT22;720;47.738;7.998;2024-01-30T13:27:52;12.20;52.70
1453;DHT22;720;47.738;7.998;2024-01-30T13:30:18;12.10;52.20
1453;DHT22;720;47.738;7.998;2024-01-30T13:32:44;12.00;54.90
1453;DHT22;720;47.738;7.998;2024-01-30T13:35:10;11.90;53.50
1453;DHT22;720;47.738;7.998;2024-01-30T13:37:36;11.90;53.90
1453;DHT22;720;47.738;7.998;2024-01-30T13:40:04;11.90;52.20
1453;DHT22;720;47.738;7.998;2024-01-30T13:42:32;12.00;53.00
1453;DHT22;720;47.738;7.998;2024-01-30T13:44:58;11.80;54.00
1453;DHT22;720;47.738;7.998;2024-01-30T13:47:23;11.80;54.10
1453;DHT22;720;47.738;7.998;2024-01-30T13:49:49;11.80;53.50
1453;DHT22;720;47.738;7.998;2024-01-30T13:52:15;11.90;52.90
1453;DHT22;720;47.738;7.998;2024-01-30T13:54:40;12.00;52.50
1453;DHT22;720;47.738;7.998;2024-01-30T13:57:06;12.10;52.00
1453;DHT22;720;47.738;7.998;2024-01-30T13:59:34;12.10;54.50
1453;DHT22;720;47.738;7.998;2024-01-30T14:01:59;12.00;54.90
1453;DHT22;720;47.738;7.998;2024-01-30T14:04:25;12.10;55.10
1453;DHT22;720;47.738;7.998;2024-01-30T14:06:50;12.00;53.40
1453;DHT22;720;47.738;7.998;2024-01-30T14:09:16;12.00;53.60
1453;DHT22;720;47.738;7.998;2024-01-30T14:11:42;12.10;54.30
1453;DHT22;720;47.738;7.998;2024-01-30T14:14:08;12.20;53.50
1453;DHT22;720;47.738;7.998;2024-01-30T14:16:34;12.20;53.10
1453;DHT22;720;47.738;7.998;2024-01-30T14:19:00;12.20;53.10
1453;DHT22;720;47.738;7.998;2024-01-30T14:21:25;12.30;53.30
1453;DHT22;720;47.738;7.998;2024-01-30T14:23:51;12.30;53.90
1453;DHT22;720;47.738;7.998;2024-01-30T14:26:16;12.20;55.20
1453;DHT22;720;47.738;7.998;2024-01-30T14:28:42;12.20;55.70
1453;DHT22;720;47.738;7.998;2024-01-30T14:31:09;12.10;56.40
1453;DHT22;720;47.738;7.998;2024-01-30T14:33:34;12.10;56.40
1453;DHT22;720;47.738;7.998;2024-01-30T14:36:00;12.00;56.30
1453;DHT22;720;47.738;7.998;2024-01-30T14:38:25;12.00;56.20
1453;DHT22;720;47.738;7.998;2024-01-30T14:40:51;12.00;56.50
1453;DHT22;720;47.738;7.998;2024-01-30T14:43:17;11.90;56.50
1453;DHT22;720;47.738;7.998;2024-01-30T14:45:42;11.80;56.80
1453;DHT22;720;47.738;7.998;2024-01-30T14:48:11;11.80;56.90
1453;DHT22;720;47.738;7.998;2024-01-30T14:50:36;11.80;57.50
1453;DHT22;720;47.738;7.998;2024-01-30T14:53:03;11.80;56.90
1453;DHT22;720;47.738;7.998;2024-01-30T14:55:28;11.80;57.00
1453;DHT22;720;47.738;7.998;2024-01-30T14:57:54;11.80;58.20
1453;DHT22;720;47.738;7.998;2024-01-30T15:00:20;11.70;58.90
1453;DHT22;720;47.738;7.998;2024-01-30T15:02:46;11.70;59.00
1453;DHT22;720;47.738;7.998;2024-01-30T15:05:12;11.60;59.50
1453;DHT22;720;47.738;7.998;2024-01-30T15:07:38;11.60;60.10
1453;DHT22;720;47.738;7.998;2024-01-30T15:10:04;11.60;59.50
1453;DHT22;720;47.738;7.998;2024-01-30T15:12:30;11.40;62.10
1453;DHT22;720;47.738;7.998;2024-01-30T15:14:55;11.30;63.10
1453;DHT22;720;47.738;7.998;2024-01-30T15:17:21;11.20;61.90
1453;DHT22;720;47.738;7.998;2024-01-30T15:19:47;11.10;61.80
1453;DHT22;720;47.738;7.998;2024-01-30T15:22:13;11.10;61.90
1453;DHT22;720;47.738;7.998;2024-01-30T15:24:39;11.10;62.40
1453;DHT22;720;47.738;7.998;2024-01-30T15:27:05;11.00;61.90
1453;DHT22;720;47.738;7.998;2024-01-30T15:29:31;10.90;62.90
1453;DHT22;720;47.738;7.998;2024-01-30T15:31:56;10.80;64.40
1453;DHT22;720;47.738;7.998;2024-01-30T15:34:22;10.80;65.00
1453;DHT22;720;47.738;7.998;2024-01-30T15:36:48;10.70;65.50
1453;DHT22;720;47.738;7.998;2024-01-30T15:39:14;10.60;65.30
1453;DHT22;720;47.738;7.998;2024-01-30T15:41:41;10.60;66.10
1453;DHT22;720;47.738;7.998;2024-01-30T15:44:06;10.50;66.80
1453;DHT22;720;47.738;7.998;2024-01-30T15:46:32;10.40;67.20
1453;DHT22;720;47.738;7.998;2024-01-30T15:48:58;10.40;67.20
1453;DHT22;720;47.738;7.998;2024-01-30T15:51:25;10.40;67.30
1453;DHT22;720;47.738;7.998;2024-01-30T15:53:50;10.30;67.40
1453;DHT22;720;47.738;7.998;2024-01-30T15:56:16;10.30;68.00
1453;DHT22;720;47.738;7.998;2024-01-30T15:58:42;10.20;68.70
1453;DHT22;720;47.738;7.998;2024-01-30T16:01:07;10.20;68.80
1453;DHT22;720;47.738;7.998;2024-01-30T16:03:33;10.10;67.90
1453;DHT22;720;47.738;7.998;2024-01-30T16:05:59;10.10;68.20
1453;DHT22;720;47.738;7.998;2024-01-30T16:08:24;10.00;68.10
1453;DHT22;720;47.738;7.998;2024-01-30T16:10:50;10.00;68.30
1453;DHT22;720;47.738;7.998;2024-01-30T16:13:16;9.90;70.20
1453;DHT22;720;47.738;7.998;2024-01-30T16:15:42;9.90;70.50
1453;DHT22;720;47.738;7.998;2024-01-30T16:18:09;9.80;70.40
1453;DHT22;720;47.738;7.998;2024-01-30T16:20:35;9.70;70.50
1453;DHT22;720;47.738;7.998;2024-01-30T16:23:00;9.60;71.10